sensor_id;sensor_type;location;lat;lon;timestamp;temperature;humidity
72114;SHT31;59989;46.220;19.888;2024-03-29T00:02:48;7.55;92.77
72114;SHT31;59989;46.220;19.888;2024-03-29T00:05:49;7.55;92.32
72114;SHT31;59989;46.220;19.888;2024-03-29T00:08:51;7.54;92.23
72114;SHT31;59989;46.220;19.888;2024-03-29T00:11:52;7.47;92.31
72114;SHT31;59989;46.220;19.888;2024-03-29T00:14:53;7.52;92.50
72114;SHT31;59989;46.220;19.888;2024-03-29T00:17:57;7.51;91.38
72114;SHT31;59989;46.220;19.888;2024-03-29T00:20:58;7.54;91.51
72114;SHT31;59989;46.220;19.888;2024-03-29T00:24:00;7.59;91.68
72114;SHT31;59989;46.220;19.888;2024-03-29T00:27:01;7.68;89.81
72114;SHT31;59989;46.220;19.888;2024-03-29T00:30:04;7.88;90.41
72114;SHT31;59989;46.220;19.888;2024-03-29T00:33:06;7.93;90.28
72114;SHT31;59989;46.220;19.888;2024-03-29T00:36:08;8.00;90.88
72114;SHT31;59989;46.220;19.888;2024-03-29T00:39:09;7.99;90.04
72114;SHT31;59989;46.220;19.888;2024-03-29T00:42:12;7.99;91.05
72114;SHT31;59989;46.220;19.888;2024-03-29T00:45:16;7.98;90.64
72114;SHT31;59989;46.220;19.888;2024-03-29T00:48:18;7.89;89.28
72114;SHT31;59989;46.220;19.888;2024-03-29T00:51:21;7.98;91.03
72114;SHT31;59989;46.220;19.888;2024-03-29T00:54:22;8.02;91.34
72114;SHT31;59989;46.220;19.888;2024-03-29T00:57:26;8.05;91.30
72114;SHT31;59989;46.220;19.888;2024-03-29T01:00:29;8.07;91.85
72114;SHT31;59989;46.220;19.888;2024-03-29T01:03:31;7.99;91.08
72114;SHT31;59989;46.220;19.888;2024-03-29T01:06:32;7.92;91.66
72114;SHT31;59989;46.220;19.888;2024-03-29T01:09:34;7.93;91.68
72114;SHT31;59989;46.220;19.888;2024-03-29T01:12:36;7.90;91.62
72114;SHT31;59989;46.220;19.888;2024-03-29T01:15:37;7.98;92.02
72114;SHT31;59989;46.220;19.888;2024-03-29T01:18:39;7.89;92.03
72114;SHT31;59989;46.220;19.888;2024-03-29T01:21:41;7.90;91.95
72114;SHT31;59989;46.220;19.888;2024-03-29T01:24:42;7.95;91.99
72114;SHT31;59989;46.220;19.888;2024-03-29T01:27:44;7.95;92.13
72114;SHT31;59989;46.220;19.888;2024-03-29T01:30:54;7.98;91.84
72114;SHT31;59989;46.220;19.888;2024-03-29T01:33:56;7.85;92.20
72114;SHT31;59989;46.220;19.888;2024-03-29T01:36:59;7.78;91.65
72114;SHT31;59989;46.220;19.888;2024-03-29T01:40:01;7.74;91.92
72114;SHT31;59989;46.220;19.888;2024-03-29T01:43:03;7.69;91.72
72114;SHT31;59989;46.220;19.888;2024-03-29T01:46:05;7.67;92.18
72114;SHT31;59989;46.220;19.888;2024-03-29T01:49:09;7.71;92.29
72114;SHT31;59989;46.220;19.888;2024-03-29T01:52:13;7.64;92.20
72114;SHT31;59989;46.220;19.888;2024-03-29T01:55:16;7.67;92.48
72114;SHT31;59989;46.220;19.888;2024-03-29T01:58:19;7.64;92.43
72114;SHT31;59989;46.220;19.888;2024-03-29T02:01:21;7.69;92.76
72114;SHT31;59989;46.220;19.888;2024-03-29T02:04:23;7.68;93.24
72114;SHT31;59989;46.220;19.888;2024-03-29T02:07:25;7.69;92.74
72114;SHT31;59989;46.220;19.888;2024-03-29T02:10:26;7.72;92.76
72114;SHT31;59989;46.220;19.888;2024-03-29T02:13:28;7.69;92.51
72114;SHT31;59989;46.220;19.888;2024-03-29T02:16:29;7.67;92.17
72114;SHT31;59989;46.220;19.888;2024-03-29T02:19:31;7.67;92.37
72114;SHT31;59989;46.220;19.888;2024-03-29T02:22:36;7.57;92.09
72114;SHT31;59989;46.220;19.888;2024-03-29T02:25:42;7.57;92.82
72114;SHT31;59989;46.220;19.888;2024-03-29T02:28:43;7.50;92.94
72114;SHT31;59989;46.220;19.888;2024-03-29T02:31:45;7.38;93.05
72114;SHT31;59989;46.220;19.888;2024-03-29T02:34:46;7.23;92.80
72114;SHT31;59989;46.220;19.888;2024-03-29T02:37:48;7.13;92.80
72114;SHT31;59989;46.220;19.888;2024-03-29T02:40:49;7.09;92.82
72114;SHT31;59989;46.220;19.888;2024-03-29T02:43:51;7.03;93.31
72114;SHT31;59989;46.220;19.888;2024-03-29T02:46:52;6.99;93.48
72114;SHT31;59989;46.220;19.888;2024-03-29T02:49:53;6.92;93.55
72114;SHT31;59989;46.220;19.888;2024-03-29T02:52:55;6.88;93.81
72114;SHT31;59989;46.220;19.888;2024-03-29T02:55:56;6.83;94.00
72114;SHT31;59989;46.220;19.888;2024-03-29T02:58:58;6.79;93.96
72114;SHT31;59989;46.220;19.888;2024-03-29T03:01:59;6.76;94.00
72114;SHT31;59989;46.220;19.888;2024-03-29T03:05:01;6.89;94.31
72114;SHT31;59989;46.220;19.888;2024-03-29T03:08:02;6.90;94.06
72114;SHT31;59989;46.220;19.888;2024-03-29T03:11:22;6.95;94.10
72114;SHT31;59989;46.220;19.888;2024-03-29T03:14:24;6.90;94.14
72114;SHT31;59989;46.220;19.888;2024-03-29T03:17:27;6.85;94.27
72114;SHT31;59989;46.220;19.888;2024-03-29T03:20:29;6.82;94.27
72114;SHT31;59989;46.220;19.888;2024-03-29T03:23:32;6.80;94.42
72114;SHT31;59989;46.220;19.888;2024-03-29T03:26:34;6.78;94.60
72114;SHT31;59989;46.220;19.888;2024-03-29T03:29:35;6.69;94.49
72114;SHT31;59989;46.220;19.888;2024-03-29T03:32:37;6.68;94.68
72114;SHT31;59989;46.220;19.888;2024-03-29T03:35:38;6.69;94.70
72114;SHT31;59989;46.220;19.888;2024-03-29T03:38:40;6.73;94.62
72114;SHT31;59989;46.220;19.888;2024-03-29T03:41:42;6.73;94.66
72114;SHT31;59989;46.220;19.888;2024-03-29T03:44:44;6.76;94.76
72114;SHT31;59989;46.220;19.888;2024-03-29T03:47:45;6.71;94.59
72114;SHT31;59989;46.220;19.888;2024-03-29T03:50:46;6.72;94.68
72114;SHT31;59989;46.220;19.888;2024-03-29T03:53:48;6.69;94.74
72114;SHT31;59989;46.220;19.888;2024-03-29T03:56:49;6.72;94.83
72114;SHT31;59989;46.220;19.888;2024-03-29T03:59:51;6.72;94.70
72114;SHT31;59989;46.220;19.888;2024-03-29T04:02:52;6.73;94.83
72114;SHT31;59989;46.220;19.888;2024-03-29T04:05:54;6.79;94.70
72114;SHT31;59989;46.220;19.888;2024-03-29T04:08:55;6.79;94.80
72114;SHT31;59989;46.220;19.888;2024-03-29T04:11:57;6.79;94.77
72114;SHT31;59989;46.220;19.888;2024-03-29T04:14:58;6.76;94.88
72114;SHT31;59989;46.220;19.888;2024-03-29T04:17:59;6.73;95.10
72114;SHT31;59989;46.220;19.888;2024-03-29T04:21:02;6.75;95.03
72114;SHT31;59989;46.220;19.888;2024-03-29T04:24:04;6.76;95.13
72114;SHT31;59989;46.220;19.888;2024-03-29T04:27:08;6.75;95.20
72114;SHT31;59989;46.220;19.888;2024-03-29T04:30:10;6.76;95.31
72114;SHT31;59989;46.220;19.888;2024-03-29T04:33:11;6.83;95.37
72114;SHT31;59989;46.220;19.888;2024-03-29T04:36:13;6.90;95.34
72114;SHT31;59989;46.220;19.888;2024-03-29T04:39:14;6.99;95.22
72114;SHT31;59989;46.220;19.888;2024-03-29T04:42:16;7.07;95.32
72114;SHT31;59989;46.220;19.888;2024-03-29T04:45:17;7.09;95.16
72114;SHT31;59989;46.220;19.888;2024-03-29T04:48:19;7.13;94.93
72114;SHT31;59989;46.220;19.888;2024-03-29T04:51:20;7.16;94.94
72114;SHT31;59989;46.220;19.888;2024-03-29T04:54:21;7.21;94.84
72114;SHT31;59989;46.220;19.888;2024-03-29T04:57:23;7.24;94.82
72114;SHT31;59989;46.220;19.888;2024-03-29T05:00:24;7.35;94.59
72114;SHT31;59989;46.220;19.888;2024-03-29T05:03:26;7.43;94.52
72114;SHT31;59989;46.220;19.888;2024-03-29T05:06:27;7.46;94.10
72114;SHT31;59989;46.220;19.888;2024-03-29T05:09:28;7.54;94.18
72114;SHT31;59989;46.220;19.888;2024-03-29T05:12:30;7.55;93.89
72114;SHT31;59989;46.220;19.888;2024-03-29T05:15:32;7.68;93.82
72114;SHT31;59989;46.220;19.888;2024-03-29T05:18:33;7.85;93.54
72114;SHT31;59989;46.220;19.888;2024-03-29T05:21:35;7.90;93.33
72114;SHT31;59989;46.220;19.888;2024-03-29T05:24:36;7.96;92.29
72114;SHT31;59989;46.220;19.888;2024-03-29T05:27:38;8.00;92.06
72114;SHT31;59989;46.220;19.888;2024-03-29T05:30:39;8.03;91.72
72114;SHT31;59989;46.220;19.888;2024-03-29T05:33:41;8.16;91.61
72114;SHT31;59989;46.220;19.888;2024-03-29T05:36:42;8.25;90.96
72114;SHT31;59989;46.220;19.888;2024-03-29T05:39:45;8.26;90.59
72114;SHT31;59989;46.220;19.888;2024-03-29T05:42:48;8.38;90.63
72114;SHT31;59989;46.220;19.888;2024-03-29T05:45:52;8.57;90.84
72114;SHT31;59989;46.220;19.888;2024-03-29T05:48:53;8.72;90.55
72114;SHT31;59989;46.220;19.888;2024-03-29T05:51:55;8.72;89.80
72114;SHT31;59989;46.220;19.888;2024-03-29T05:54:56;8.78;90.00
72114;SHT31;59989;46.220;19.888;2024-03-29T05:57:58;8.81;89.53
72114;SHT31;59989;46.220;19.888;2024-03-29T06:00:59;8.82;89.46
72114;SHT31;59989;46.220;19.888;2024-03-29T06:04:01;8.86;89.15
72114;SHT31;59989;46.220;19.888;2024-03-29T06:07:06;8.96;89.12
72114;SHT31;59989;46.220;19.888;2024-03-29T06:10:09;8.92;88.17
72114;SHT31;59989;46.220;19.888;2024-03-29T06:13:11;8.92;87.81
72114;SHT31;59989;46.220;19.888;2024-03-29T06:16:29;9.01;88.12
72114;SHT31;59989;46.220;19.888;2024-03-29T06:19:53;9.06;87.42
72114;SHT31;59989;46.220;19.888;2024-03-29T06:22:58;9.06;88.13
72114;SHT31;59989;46.220;19.888;2024-03-29T06:26:00;9.13;88.05
72114;SHT31;59989;46.220;19.888;2024-03-29T06:29:02;9.05;88.07
72114;SHT31;59989;46.220;19.888;2024-03-29T06:32:04;9.20;87.71
72114;SHT31;59989;46.220;19.888;2024-03-29T06:35:06;9.25;87.81
72114;SHT31;59989;46.220;19.888;2024-03-29T06:38:07;9.37;87.97
72114;SHT31;59989;46.220;19.888;2024-03-29T06:41:09;9.51;87.72
72114;SHT31;59989;46.220;19.888;2024-03-29T06:44:10;9.73;87.22
72114;SHT31;59989;46.220;19.888;2024-03-29T06:47:12;9.95;86.01
72114;SHT31;59989;46.220;19.888;2024-03-29T06:50:13;10.16;85.44
72114;SHT31;59989;46.220;19.888;2024-03-29T06:53:15;10.23;85.84
72114;SHT31;59989;46.220;19.888;2024-03-29T06:56:16;10.26;85.28
72114;SHT31;59989;46.220;19.888;2024-03-29T06:59:19;10.46;85.20
72114;SHT31;59989;46.220;19.888;2024-03-29T07:02:20;10.77;84.86
72114;SHT31;59989;46.220;19.888;2024-03-29T07:05:22;10.85;83.71
72114;SHT31;59989;46.220;19.888;2024-03-29T07:08:24;11.11;83.87
72114;SHT31;59989;46.220;19.888;2024-03-29T07:11:25;11.32;83.08
72114;SHT31;59989;46.220;19.888;2024-03-29T07:14:27;11.48;82.40
72114;SHT31;59989;46.220;19.888;2024-03-29T07:17:29;11.62;81.77
72114;SHT31;59989;46.220;19.888;2024-03-29T07:20:31;11.76;81.21
72114;SHT31;59989;46.220;19.888;2024-03-29T07:23:32;11.80;81.96
72114;SHT31;59989;46.220;19.888;2024-03-29T07:26:34;11.98;80.16
72114;SHT31;59989;46.220;19.888;2024-03-29T07:29:35;12.28;80.14
72114;SHT31;59989;46.220;19.888;2024-03-29T07:32:37;12.33;78.75
72114;SHT31;59989;46.220;19.888;2024-03-29T07:35:39;12.66;78.57
72114;SHT31;59989;46.220;19.888;2024-03-29T07:38:43;12.79;78.28
72114;SHT31;59989;46.220;19.888;2024-03-29T07:41:47;12.88;78.18
72114;SHT31;59989;46.220;19.888;2024-03-29T07:44:48;13.12;77.81
72114;SHT31;59989;46.220;19.888;2024-03-29T07:47:50;13.16;75.40
72114;SHT31;59989;46.220;19.888;2024-03-29T07:50:53;13.23;75.51
72114;SHT31;59989;46.220;19.888;2024-03-29T07:53:55;13.51;75.57
72114;SHT31;59989;46.220;19.888;2024-03-29T07:56:56;13.30;76.71
72114;SHT31;59989;46.220;19.888;2024-03-29T07:59:58;13.71;74.29
72114;SHT31;59989;46.220;19.888;2024-03-29T08:03:00;13.94;73.28
72114;SHT31;59989;46.220;19.888;2024-03-29T08:06:03;14.46;72.75
72114;SHT31;59989;46.220;19.888;2024-03-29T08:09:05;14.89;71.24
72114;SHT31;59989;46.220;19.888;2024-03-29T08:12:07;15.16;68.97
72114;SHT31;59989;46.220;19.888;2024-03-29T08:15:08;14.85;68.30
72114;SHT31;59989;46.220;19.888;2024-03-29T08:18:10;14.70;69.45
72114;SHT31;59989;46.220;19.888;2024-03-29T08:21:11;14.97;68.32
72114;SHT31;59989;46.220;19.888;2024-03-29T08:24:13;14.80;66.75
72114;SHT31;59989;46.220;19.888;2024-03-29T08:27:14;15.28;67.00
72114;SHT31;59989;46.220;19.888;2024-03-29T08:30:16;15.42;63.83
72114;SHT31;59989;46.220;19.888;2024-03-29T08:33:18;15.79;62.69
72114;SHT31;59989;46.220;19.888;2024-03-29T08:36:19;15.91;61.00
72114;SHT31;59989;46.220;19.888;2024-03-29T08:39:21;16.20;61.75
72114;SHT31;59989;46.220;19.888;2024-03-29T08:42:22;16.42;61.58
72114;SHT31;59989;46.220;19.888;2024-03-29T08:45:24;16.48;60.52
72114;SHT31;59989;46.220;19.888;2024-03-29T08:48:29;16.72;60.78
72114;SHT31;59989;46.220;19.888;2024-03-29T08:51:30;16.84;59.17
72114;SHT31;59989;46.220;19.888;2024-03-29T08:54:32;16.89;58.93
72114;SHT31;59989;46.220;19.888;2024-03-29T08:57:33;17.04;58.62
72114;SHT31;59989;46.220;19.888;2024-03-29T09:00:35;17.38;58.93
72114;SHT31;59989;46.220;19.888;2024-03-29T09:03:36;17.04;57.97
72114;SHT31;59989;46.220;19.888;2024-03-29T09:06:38;17.37;58.01
72114;SHT31;59989;46.220;19.888;2024-03-29T09:09:39;17.41;58.79
72114;SHT31;59989;46.220;19.888;2024-03-29T09:12:42;17.93;57.79
72114;SHT31;59989;46.220;19.888;2024-03-29T09:15:44;18.18;56.34
72114;SHT31;59989;46.220;19.888;2024-03-29T09:18:46;18.05;56.34
72114;SHT31;59989;46.220;19.888;2024-03-29T09:21:47;18.09;56.80
72114;SHT31;59989;46.220;19.888;2024-03-29T09:24:49;18.27;57.61
72114;SHT31;59989;46.220;19.888;2024-03-29T09:27:50;18.18;57.12
72114;SHT31;59989;46.220;19.888;2024-03-29T09:30:57;18.48;57.31
72114;SHT31;59989;46.220;19.888;2024-03-29T09:34:00;18.71;57.58
72114;SHT31;59989;46.220;19.888;2024-03-29T09:37:01;19.23;56.92
72114;SHT31;59989;46.220;19.888;2024-03-29T09:40:04;19.22;57.53
72114;SHT31;59989;46.220;19.888;2024-03-29T09:43:07;19.46;54.53
72114;SHT31;59989;46.220;19.888;2024-03-29T09:46:10;19.67;54.51
72114;SHT31;59989;46.220;19.888;2024-03-29T09:49:12;19.60;55.74
72114;SHT31;59989;46.220;19.888;2024-03-29T09:52:15;20.21;55.29
72114;SHT31;59989;46.220;19.888;2024-03-29T09:55:18;20.11;54.43
72114;SHT31;59989;46.220;19.888;2024-03-29T09:58:21;20.49;53.72
72114;SHT31;59989;46.220;19.888;2024-03-29T10:01:23;20.75;53.74
72114;SHT31;59989;46.220;19.888;2024-03-29T10:04:25;20.72;53.54
72114;SHT31;59989;46.220;19.888;2024-03-29T10:07:27;20.72;54.47
72114;SHT31;59989;46.220;19.888;2024-03-29T10:10:32;21.04;52.90
72114;SHT31;59989;46.220;19.888;2024-03-29T10:13:34;22.27;52.24
72114;SHT31;59989;46.220;19.888;2024-03-29T10:16:36;22.12;53.03
72114;SHT31;59989;46.220;19.888;2024-03-29T10:19:37;22.02;51.92
72114;SHT31;59989;46.220;19.888;2024-03-29T10:22:42;21.63;54.09
72114;SHT31;59989;46.220;19.888;2024-03-29T10:25:46;21.79;54.12
72114;SHT31;59989;46.220;19.888;2024-03-29T10:28:47;21.78;53.16
72114;SHT31;59989;46.220;19.888;2024-03-29T10:31:50;22.06;53.79
72114;SHT31;59989;46.220;19.888;2024-03-29T10:34:53;21.28;55.07
72114;SHT31;59989;46.220;19.888;2024-03-29T10:37:54;21.45;55.15
72114;SHT31;59989;46.220;19.888;2024-03-29T10:40:56;22.16;54.08
72114;SHT31;59989;46.220;19.888;2024-03-29T10:43:59;22.24;53.91
72114;SHT31;59989;46.220;19.888;2024-03-29T10:47:05;22.94;52.76
72114;SHT31;59989;46.220;19.888;2024-03-29T10:50:08;22.82;53.42
72114;SHT31;59989;46.220;19.888;2024-03-29T10:53:12;23.45;51.92
72114;SHT31;59989;46.220;19.888;2024-03-29T10:56:15;23.81;50.65
72114;SHT31;59989;46.220;19.888;2024-03-29T10:59:21;24.28;49.26
72114;SHT31;59989;46.220;19.888;2024-03-29T11:02:39;24.00;50.50
72114;SHT31;59989;46.220;19.888;2024-03-29T11:05:45;24.64;48.47
72114;SHT31;59989;46.220;19.888;2024-03-29T11:08:48;24.59;49.38
72114;SHT31;59989;46.220;19.888;2024-03-29T11:11:52;24.22;51.25
72114;SHT31;59989;46.220;19.888;2024-03-29T11:15:09;24.66;49.41
72114;SHT31;59989;46.220;19.888;2024-03-29T11:18:15;24.88;48.47
72114;SHT31;59989;46.220;19.888;2024-03-29T11:21:20;25.12;47.67
72114;SHT31;59989;46.220;19.888;2024-03-29T11:24:22;25.63;46.58
72114;SHT31;59989;46.220;19.888;2024-03-29T11:27:25;25.27;47.16
72114;SHT31;59989;46.220;19.888;2024-03-29T11:30:27;25.48;47.19
72114;SHT31;59989;46.220;19.888;2024-03-29T11:36:44;25.76;45.79
72114;SHT31;59989;46.220;19.888;2024-03-29T11:39:49;25.80;45.75
72114;SHT31;59989;46.220;19.888;2024-03-29T11:42:52;26.47;44.38
72114;SHT31;59989;46.220;19.888;2024-03-29T11:45:54;26.72;44.49
72114;SHT31;59989;46.220;19.888;2024-03-29T11:48:56;25.48;44.50
72114;SHT31;59989;46.220;19.888;2024-03-29T11:52:04;26.41;42.98
72114;SHT31;59989;46.220;19.888;2024-03-29T11:55:06;26.72;42.27
72114;SHT31;59989;46.220;19.888;2024-03-29T11:58:08;27.63;41.72
72114;SHT31;59989;46.220;19.888;2024-03-29T12:01:10;26.71;42.52
72114;SHT31;59989;46.220;19.888;2024-03-29T12:04:20;27.82;40.35
72114;SHT31;59989;46.220;19.888;2024-03-29T12:07:21;27.32;41.56
72114;SHT31;59989;46.220;19.888;2024-03-29T12:10:30;28.16;39.97
72114;SHT31;59989;46.220;19.888;2024-03-29T12:13:31;28.05;39.52
72114;SHT31;59989;46.220;19.888;2024-03-29T12:16:42;28.81;38.12
72114;SHT31;59989;46.220;19.888;2024-03-29T12:19:44;27.76;39.49
72114;SHT31;59989;46.220;19.888;2024-03-29T12:22:46;26.88;41.01
72114;SHT31;59989;46.220;19.888;2024-03-29T12:25:49;26.86;41.14
72114;SHT31;59989;46.220;19.888;2024-03-29T12:28:51;28.97;38.76
72114;SHT31;59989;46.220;19.888;2024-03-29T12:32:01;28.11;39.61
72114;SHT31;59989;46.220;19.888;2024-03-29T12:35:16;26.01;41.76
72114;SHT31;59989;46.220;19.888;2024-03-29T12:38:18;27.40;40.36
72114;SHT31;59989;46.220;19.888;2024-03-29T12:41:20;27.58;39.98
72114;SHT31;59989;46.220;19.888;2024-03-29T12:44:25;28.39;39.90
72114;SHT31;59989;46.220;19.888;2024-03-29T12:47:27;29.38;38.35
72114;SHT31;59989;46.220;19.888;2024-03-29T12:50:32;28.76;37.97
72114;SHT31;59989;46.220;19.888;2024-03-29T12:53:34;28.21;39.14
72114;SHT31;59989;46.220;19.888;2024-03-29T12:56:35;27.00;40.83
72114;SHT31;59989;46.220;19.888;2024-03-29T12:59:38;27.07;40.67
72114;SHT31;59989;46.220;19.888;2024-03-29T13:02:40;27.03;39.78
72114;SHT31;59989;46.220;19.888;2024-03-29T13:05:41;26.91;39.30
72114;SHT31;59989;46.220;19.888;2024-03-29T13:08:46;27.53;38.84
72114;SHT31;59989;46.220;19.888;2024-03-29T13:11:47;26.27;41.48
72114;SHT31;59989;46.220;19.888;2024-03-29T13:14:49;25.38;42.19
72114;SHT31;59989;46.220;19.888;2024-03-29T13:17:52;25.22;42.79
72114;SHT31;59989;46.220;19.888;2024-03-29T13:20:53;26.00;41.73
72114;SHT31;59989;46.220;19.888;2024-03-29T13:23:57;24.33;44.90
72114;SHT31;59989;46.220;19.888;2024-03-29T13:26:59;24.40;44.30
72114;SHT31;59989;46.220;19.888;2024-03-29T13:30:00;25.55;43.31
72114;SHT31;59989;46.220;19.888;2024-03-29T13:33:02;25.78;42.04
72114;SHT31;59989;46.220;19.888;2024-03-29T13:36:04;28.31;38.42
72114;SHT31;59989;46.220;19.888;2024-03-29T13:39:07;30.24;36.65
72114;SHT31;59989;46.220;19.888;2024-03-29T13:42:10;28.93;38.46
72114;SHT31;59989;46.220;19.888;2024-03-29T13:45:11;30.71;35.45
72114;SHT31;59989;46.220;19.888;2024-03-29T13:48:13;28.74;38.14
72114;SHT31;59989;46.220;19.888;2024-03-29T13:51:15;25.49;43.06
72114;SHT31;59989;46.220;19.888;2024-03-29T13:54:16;24.36;44.58
72114;SHT31;59989;46.220;19.888;2024-03-29T13:57:18;24.76;44.65
72114;SHT31;59989;46.220;19.888;2024-03-29T14:00:19;24.83;44.14
72114;SHT31;59989;46.220;19.888;2024-03-29T14:03:21;24.45;44.59
72114;SHT31;59989;46.220;19.888;2024-03-29T14:06:23;24.43;44.76
72114;SHT31;59989;46.220;19.888;2024-03-29T14:09:25;24.57;44.24
72114;SHT31;59989;46.220;19.888;2024-03-29T14:12:29;24.29;44.93
72114;SHT31;59989;46.220;19.888;2024-03-29T14:15:31;24.24;44.99
72114;SHT31;59989;46.220;19.888;2024-03-29T14:18:32;25.21;44.56
72114;SHT31;59989;46.220;19.888;2024-03-29T14:21:34;25.69;43.22
72114;SHT31;59989;46.220;19.888;2024-03-29T14:24:36;24.90;44.50
72114;SHT31;59989;46.220;19.888;2024-03-29T14:27:38;25.04;44.85
72114;SHT31;59989;46.220;19.888;2024-03-29T14:30:48;24.36;45.49
72114;SHT31;59989;46.220;19.888;2024-03-29T14:33:50;24.01;46.19
72114;SHT31;59989;46.220;19.888;2024-03-29T14:36:52;24.04;46.42
72114;SHT31;59989;46.220;19.888;2024-03-29T14:39:53;24.66;45.40
72114;SHT31;59989;46.220;19.888;2024-03-29T14:42:55;25.39;44.66
72114;SHT31;59989;46.220;19.888;2024-03-29T14:45:59;25.31;44.25
72114;SHT31;59989;46.220;19.888;2024-03-29T14:49:02;25.63;44.36
72114;SHT31;59989;46.220;19.888;2024-03-29T14:52:06;25.53;44.82
72114;SHT31;59989;46.220;19.888;2024-03-29T14:55:08;24.12;46.56
72114;SHT31;59989;46.220;19.888;2024-03-29T14:58:09;23.82;47.10
72114;SHT31;59989;46.220;19.888;2024-03-29T15:01:10;23.60;48.24
72114;SHT31;59989;46.220;19.888;2024-03-29T15:04:12;23.02;50.14
72114;SHT31;59989;46.220;19.888;2024-03-29T15:07:14;22.89;49.78
72114;SHT31;59989;46.220;19.888;2024-03-29T15:10:16;22.72;50.73
72114;SHT31;59989;46.220;19.888;2024-03-29T15:13:18;22.58;50.84
72114;SHT31;59989;46.220;19.888;2024-03-29T15:16:19;22.40;50.90
72114;SHT31;59989;46.220;19.888;2024-03-29T15:19:22;22.39;51.15
72114;SHT31;59989;46.220;19.888;2024-03-29T15:22:24;22.36;51.74
72114;SHT31;59989;46.220;19.888;2024-03-29T15:25:25;22.09;51.52
72114;SHT31;59989;46.220;19.888;2024-03-29T15:28:27;22.04;51.99
72114;SHT31;59989;46.220;19.888;2024-03-29T15:31:47;22.00;52.11
72114;SHT31;59989;46.220;19.888;2024-03-29T15:34:49;22.02;52.58
72114;SHT31;59989;46.220;19.888;2024-03-29T15:37:51;21.81;53.03
72114;SHT31;59989;46.220;19.888;2024-03-29T15:40:53;21.76;53.29
72114;SHT31;59989;46.220;19.888;2024-03-29T15:43:55;21.76;53.26
72114;SHT31;59989;46.220;19.888;2024-03-29T15:46:59;21.65;53.79
72114;SHT31;59989;46.220;19.888;2024-03-29T15:50:00;21.59;54.08
72114;SHT31;59989;46.220;19.888;2024-03-29T15:53:02;21.39;54.23
72114;SHT31;59989;46.220;19.888;2024-03-29T15:56:04;21.32;54.14
72114;SHT31;59989;46.220;19.888;2024-03-29T15:59:06;21.24;54.46
72114;SHT31;59989;46.220;19.888;2024-03-29T16:02:08;21.10;54.96
72114;SHT31;59989;46.220;19.888;2024-03-29T16:05:09;20.97;55.49
72114;SHT31;59989;46.220;19.888;2024-03-29T16:08:14;20.87;56.11
72114;SHT31;59989;46.220;19.888;2024-03-29T16:11:16;20.75;56.13
72114;SHT31;59989;46.220;19.888;2024-03-29T16:14:17;20.70;56.44
72114;SHT31;59989;46.220;19.888;2024-03-29T16:17:19;20.56;56.91
72114;SHT31;59989;46.220;19.888;2024-03-29T16:20:20;20.49;57.24
72114;SHT31;59989;46.220;19.888;2024-03-29T16:23:23;20.40;57.93
72114;SHT31;59989;46.220;19.888;2024-03-29T16:26:24;20.28;58.36
72114;SHT31;59989;46.220;19.888;2024-03-29T16:29:27;20.19;58.85
72114;SHT31;59989;46.220;19.888;2024-03-29T16:32:28;20.12;58.91
72114;SHT31;59989;46.220;19.888;2024-03-29T16:35:31;20.07;59.51
72114;SHT31;59989;46.220;19.888;2024-03-29T16:38:33;20.00;59.46
72114;SHT31;59989;46.220;19.888;2024-03-29T16:41:35;19.87;59.68
72114;SHT31;59989;46.220;19.888;2024-03-29T16:44:37;19.77;60.08
72114;SHT31;59989;46.220;19.888;2024-03-29T16:47:38;19.63;61.01
72114;SHT31;59989;46.220;19.888;2024-03-29T16:50:40;19.50;61.29
72114;SHT31;59989;46.220;19.888;2024-03-29T16:53:41;19.37;61.85
72114;SHT31;59989;46.220;19.888;2024-03-29T16:56:43;19.19;62.41
72114;SHT31;59989;46.220;19.888;2024-03-29T16:59:45;19.05;62.92
72114;SHT31;59989;46.220;19.888;2024-03-29T17:02:48;18.87;63.54
72114;SHT31;59989;46.220;19.888;2024-03-29T17:05:51;18.68;64.81
72114;SHT31;59989;46.220;19.888;2024-03-29T17:08:53;18.51;64.96
72114;SHT31;59989;46.220;19.888;2024-03-29T17:11:54;18.37;65.81
72114;SHT31;59989;46.220;19.888;2024-03-29T17:14:56;18.34;65.76
72114;SHT31;59989;46.220;19.888;2024-03-29T17:17:59;18.20;66.24
72114;SHT31;59989;46.220;19.888;2024-03-29T17:21:00;18.09;66.03
72114;SHT31;59989;46.220;19.888;2024-03-29T17:24:02;18.10;66.10
72114;SHT31;59989;46.220;19.888;2024-03-29T17:27:03;18.07;65.75
72114;SHT31;59989;46.220;19.888;2024-03-29T17:30:05;18.17;65.33
72114;SHT31;59989;46.220;19.888;2024-03-29T17:33:07;18.09;65.66
72114;SHT31;59989;46.220;19.888;2024-03-29T17:36:09;17.96;65.61
72114;SHT31;59989;46.220;19.888;2024-03-29T17:39:11;17.86;66.04
72114;SHT31;59989;46.220;19.888;2024-03-29T17:42:13;17.74;66.51
72114;SHT31;59989;46.220;19.888;2024-03-29T17:45:14;17.67;66.41
72114;SHT31;59989;46.220;19.888;2024-03-29T17:48:16;17.57;66.57
72114;SHT31;59989;46.220;19.888;2024-03-29T17:51:17;17.47;66.74
72114;SHT31;59989;46.220;19.888;2024-03-29T17:54:19;17.42;66.79
72114;SHT31;59989;46.220;19.888;2024-03-29T17:57:20;17.35;66.78
72114;SHT31;59989;46.220;19.888;2024-03-29T18:00:22;17.37;66.91
72114;SHT31;59989;46.220;19.888;2024-03-29T18:03:23;17.24;67.22
72114;SHT31;59989;46.220;19.888;2024-03-29T18:06:25;17.13;67.56
72114;SHT31;59989;46.220;19.888;2024-03-29T18:09:26;17.06;68.13
72114;SHT31;59989;46.220;19.888;2024-03-29T18:12:28;16.94;68.88
72114;SHT31;59989;46.220;19.888;2024-03-29T18:15:30;16.80;69.14
72114;SHT31;59989;46.220;19.888;2024-03-29T18:18:33;16.70;69.67
72114;SHT31;59989;46.220;19.888;2024-03-29T18:21:34;16.69;69.60
72114;SHT31;59989;46.220;19.888;2024-03-29T18:24:36;16.69;69.43
72114;SHT31;59989;46.220;19.888;2024-03-29T18:27:38;16.63;69.57
72114;SHT31;59989;46.220;19.888;2024-03-29T18:30:39;16.65;69.55
72114;SHT31;59989;46.220;19.888;2024-03-29T18:33:41;16.65;69.23
72114;SHT31;59989;46.220;19.888;2024-03-29T18:36:42;16.55;69.88
72114;SHT31;59989;46.220;19.888;2024-03-29T18:39:43;16.48;70.21
72114;SHT31;59989;46.220;19.888;2024-03-29T18:42:46;16.45;69.94
72114;SHT31;59989;46.220;19.888;2024-03-29T18:45:48;16.45;69.97
72114;SHT31;59989;46.220;19.888;2024-03-29T18:48:50;16.40;69.95
72114;SHT31;59989;46.220;19.888;2024-03-29T18:51:51;16.40;69.83
72114;SHT31;59989;46.220;19.888;2024-03-29T18:54:53;16.31;69.85
72114;SHT31;59989;46.220;19.888;2024-03-29T18:57:55;16.33;69.96
72114;SHT31;59989;46.220;19.888;2024-03-29T19:00:57;16.32;70.20
72114;SHT31;59989;46.220;19.888;2024-03-29T19:03:58;16.35;69.95
72114;SHT31;59989;46.220;19.888;2024-03-29T19:07:00;16.38;69.87